sensor_id;sensor_type;location;lat;lon;timestamp;P1;durP1;ratioP1;P2;durP2;ratioP2
22449;SDS011;11392;57.390;-2.468;2023-04-25T00:02:13;8.48;;;3.20;;
22449;SDS011;11392;57.390;-2.468;2023-04-25T00:04:41;5.28;;;2.72;;
22449;SDS011;11392;57.390;-2.468;2023-04-25T00:07:09;5.57;;;2.58;;
22449;SDS011;11392;57.390;-2.468;2023-04-25T00:09:37;4.05;;;2.33;;
22449;SDS011;11392;57.390;-2.468;2023-04-25T00:12:04;6.38;;;2.40;;
22449;SDS011;11392;57.390;-2.468;2023-04-25T00:14:31;5.22;;;2.42;;
22449;SDS011;11392;57.390;-2.468;2023-04-25T00:17:00;5.85;;;2.35;;
22449;SDS011;11392;57.390;-2.468;2023-04-25T00:19:27;6.03;;;2.70;;
22449;SDS011;11392;57.390;-2.468;2023-04-25T00:21:55;6.82;;;2.58;;
22449;SDS011;11392;57.390;-2.468;2023-04-25T00:24:22;6.40;;;2.53;;
22449;SDS011;11392;57.390;-2.468;2023-04-25T00:26:49;3.63;;;2.22;;
22449;SDS011;11392;57.390;-2.468;2023-04-25T00:29:16;7.78;;;2.80;;
22449;SDS011;11392;57.390;-2.468;2023-04-25T00:31:43;7.75;;;2.30;;
22449;SDS011;11392;57.390;-2.468;2023-04-25T00:34:10;6.13;;;2.40;;
22449;SDS011;11392;57.390;-2.468;2023-04-25T00:36:37;7.18;;;3.45;;
22449;SDS011;11392;57.390;-2.468;2023-04-25T00:39:04;7.63;;;2.63;;
22449;SDS011;11392;57.390;-2.468;2023-04-25T00:41:32;7.90;;;3.10;;
22449;SDS011;11392;57.390;-2.468;2023-04-25T00:43:59;8.02;;;2.78;;
22449;SDS011;11392;57.390;-2.468;2023-04-25T00:46:28;7.07;;;2.40;;
22449;SDS011;11392;57.390;-2.468;2023-04-25T00:48:56;4.20;;;2.20;;
22449;SDS011;11392;57.390;-2.468;2023-04-25T00:51:23;6.20;;;2.28;;
22449;SDS011;11392;57.390;-2.468;2023-04-25T00:53:53;6.63;;;2.75;;
22449;SDS011;11392;57.390;-2.468;2023-04-25T00:56:20;4.50;;;2.30;;
22449;SDS011;11392;57.390;-2.468;2023-04-25T00:58:47;6.05;;;2.40;;
22449;SDS011;11392;57.390;-2.468;2023-04-25T01:01:16;3.20;;;1.95;;
22449;SDS011;11392;57.390;-2.468;2023-04-25T01:03:43;4.43;;;2.40;;
22449;SDS011;11392;57.390;-2.468;2023-04-25T01:06:13;8.85;;;2.58;;
22449;SDS011;11392;57.390;-2.468;2023-04-25T01:08:40;4.90;;;2.25;;
22449;SDS011;11392;57.390;-2.468;2023-04-25T01:11:07;5.25;;;2.42;;
22449;SDS011;11392;57.390;-2.468;2023-04-25T01:13:34;7.13;;;2.47;;
22449;SDS011;11392;57.390;-2.468;2023-04-25T01:16:02;10.15;;;3.67;;
22449;SDS011;11392;57.390;-2.468;2023-04-25T01:18:29;6.35;;;2.50;;
22449;SDS011;11392;57.390;-2.468;2023-04-25T01:20:56;4.40;;;2.50;;
22449;SDS011;11392;57.390;-2.468;2023-04-25T01:23:33;6.65;;;2.45;;
22449;SDS011;11392;57.390;-2.468;2023-04-25T01:26:00;5.32;;;2.38;;
22449;SDS011;11392;57.390;-2.468;2023-04-25T01:28:27;5.03;;;2.40;;
22449;SDS011;11392;57.390;-2.468;2023-04-25T01:30:54;5.55;;;2.53;;
22449;SDS011;11392;57.390;-2.468;2023-04-25T01:33:23;4.35;;;2.10;;
22449;SDS011;11392;57.390;-2.468;2023-04-25T01:35:50;5.32;;;2.28;;
22449;SDS011;11392;57.390;-2.468;2023-04-25T01:38:17;5.88;;;3.00;;
22449;SDS011;11392;57.390;-2.468;2023-04-25T01:40:44;6.30;;;2.50;;
22449;SDS011;11392;57.390;-2.468;2023-04-25T01:43:13;8.77;;;3.45;;
22449;SDS011;11392;57.390;-2.468;2023-04-25T01:45:40;7.38;;;2.60;;
22449;SDS011;11392;57.390;-2.468;2023-04-25T01:48:09;5.82;;;2.80;;
22449;SDS011;11392;57.390;-2.468;2023-04-25T01:50:38;6.50;;;2.78;;
22449;SDS011;11392;57.390;-2.468;2023-04-25T01:53:05;3.95;;;2.40;;
22449;SDS011;11392;57.390;-2.468;2023-04-25T01:55:33;6.18;;;2.35;;
22449;SDS011;11392;57.390;-2.468;2023-04-25T01:58:02;6.88;;;2.50;;
22449;SDS011;11392;57.390;-2.468;2023-04-25T02:00:29;4.57;;;2.17;;
22449;SDS011;11392;57.390;-2.468;2023-04-25T02:02:59;6.25;;;2.75;;
22449;SDS011;11392;57.390;-2.468;2023-04-25T02:05:26;4.80;;;2.67;;
22449;SDS011;11392;57.390;-2.468;2023-04-25T02:07:53;5.70;;;2.35;;
22449;SDS011;11392;57.390;-2.468;2023-04-25T02:10:21;5.00;;;2.30;;
22449;SDS011;11392;57.390;-2.468;2023-04-25T02:12:48;4.63;;;2.25;;
22449;SDS011;11392;57.390;-2.468;2023-04-25T02:15:15;6.40;;;2.50;;
22449;SDS011;11392;57.390;-2.468;2023-04-25T02:17:42;7.65;;;3.25;;
22449;SDS011;11392;57.390;-2.468;2023-04-25T02:20:09;3.30;;;2.20;;
22449;SDS011;11392;57.390;-2.468;2023-04-25T02:22:36;6.07;;;3.05;;
22449;SDS011;11392;57.390;-2.468;2023-04-25T02:25:03;2.45;;;2.05;;
22449;SDS011;11392;57.390;-2.468;2023-04-25T02:27:31;3.30;;;2.00;;
22449;SDS011;11392;57.390;-2.468;2023-04-25T02:29:58;4.45;;;2.17;;
22449;SDS011;11392;57.390;-2.468;2023-04-25T02:32:25;4.15;;;2.28;;
22449;SDS011;11392;57.390;-2.468;2023-04-25T02:34:53;4.63;;;2.20;;
22449;SDS011;11392;57.390;-2.468;2023-04-25T02:37:20;6.95;;;2.28;;
22449;SDS011;11392;57.390;-2.468;2023-04-25T02:39:47;3.17;;;2.00;;
22449;SDS011;11392;57.390;-2.468;2023-04-25T02:42:14;2.55;;;1.90;;
22449;SDS011;11392;57.390;-2.468;2023-04-25T02:44:41;5.85;;;2.33;;
22449;SDS011;11392;57.390;-2.468;2023-04-25T02:47:08;8.15;;;2.70;;
22449;SDS011;11392;57.390;-2.468;2023-04-25T02:49:35;3.42;;;1.88;;
22449;SDS011;11392;57.390;-2.468;2023-04-25T02:52:02;6.90;;;2.22;;
22449;SDS011;11392;57.390;-2.468;2023-04-25T02:54:30;6.13;;;2.38;;
22449;SDS011;11392;57.390;-2.468;2023-04-25T02:56:57;4.10;;;2.10;;
22449;SDS011;11392;57.390;-2.468;2023-04-25T02:59:24;5.03;;;2.35;;
22449;SDS011;11392;57.390;-2.468;2023-04-25T03:01:51;6.22;;;2.05;;
22449;SDS011;11392;57.390;-2.468;2023-04-25T03:04:18;4.57;;;1.83;;
22449;SDS011;11392;57.390;-2.468;2023-04-25T03:06:45;6.65;;;1.85;;
22449;SDS011;11392;57.390;-2.468;2023-04-25T03:09:13;5.35;;;1.90;;
22449;SDS011;11392;57.390;-2.468;2023-04-25T03:11:39;4.72;;;1.90;;
22449;SDS011;11392;57.390;-2.468;2023-04-25T03:14:07;5.20;;;2.28;;
22449;SDS011;11392;57.390;-2.468;2023-04-25T03:16:34;4.22;;;2.20;;
22449;SDS011;11392;57.390;-2.468;2023-04-25T03:19:02;3.22;;;2.53;;
22449;SDS011;11392;57.390;-2.468;2023-04-25T03:21:30;5.75;;;2.00;;
22449;SDS011;11392;57.390;-2.468;2023-04-25T03:24:01;3.88;;;1.60;;
22449;SDS011;11392;57.390;-2.468;2023-04-25T03:26:29;4.95;;;2.00;;
22449;SDS011;11392;57.390;-2.468;2023-04-25T03:28:57;5.75;;;1.90;;
22449;SDS011;11392;57.390;-2.468;2023-04-25T03:31:24;3.10;;;2.00;;
22449;SDS011;11392;57.390;-2.468;2023-04-25T03:33:51;2.95;;;1.55;;
22449;SDS011;11392;57.390;-2.468;2023-04-25T03:36:18;2.95;;;1.70;;
22449;SDS011;11392;57.390;-2.468;2023-04-25T03:38:45;3.00;;;1.73;;
22449;SDS011;11392;57.390;-2.468;2023-04-25T03:41:12;3.65;;;1.40;;
22449;SDS011;11392;57.390;-2.468;2023-04-25T03:43:39;3.00;;;1.60;;
22449;SDS011;11392;57.390;-2.468;2023-04-25T03:46:06;3.97;;;2.28;;
22449;SDS011;11392;57.390;-2.468;2023-04-25T03:48:33;3.45;;;1.67;;
22449;SDS011;11392;57.390;-2.468;2023-04-25T03:51:01;2.40;;;1.80;;
22449;SDS011;11392;57.390;-2.468;2023-04-25T03:53:28;5.55;;;2.22;;
22449;SDS011;11392;57.390;-2.468;2023-04-25T03:55:55;6.30;;;2.10;;
22449;SDS011;11392;57.390;-2.468;2023-04-25T03:58:22;3.70;;;1.73;;
22449;SDS011;11392;57.390;-2.468;2023-04-25T04:00:50;3.42;;;2.05;;
22449;SDS011;11392;57.390;-2.468;2023-04-25T04:03:17;4.97;;;2.05;;
22449;SDS011;11392;57.390;-2.468;2023-04-25T04:05:44;4.18;;;2.25;;
22449;SDS011;11392;57.390;-2.468;2023-04-25T04:08:13;7.50;;;2.28;;
22449;SDS011;11392;57.390;-2.468;2023-04-25T04:10:39;6.38;;;2.33;;
22449;SDS011;11392;57.390;-2.468;2023-04-25T04:13:06;6.10;;;2.55;;
22449;SDS011;11392;57.390;-2.468;2023-04-25T04:15:33;3.83;;;1.90;;
22449;SDS011;11392;57.390;-2.468;2023-04-25T04:18:01;5.10;;;2.03;;
22449;SDS011;11392;57.390;-2.468;2023-04-25T04:20:30;5.07;;;2.30;;
22449;SDS011;11392;57.390;-2.468;2023-04-25T04:22:57;6.05;;;2.20;;
22449;SDS011;11392;57.390;-2.468;2023-04-25T04:25:24;4.57;;;1.92;;
22449;SDS011;11392;57.390;-2.468;2023-04-25T04:27:52;5.35;;;2.28;;
22449;SDS011;11392;57.390;-2.468;2023-04-25T04:30:23;4.93;;;2.35;;
22449;SDS011;11392;57.390;-2.468;2023-04-25T04:32:51;3.10;;;1.80;;
22449;SDS011;11392;57.390;-2.468;2023-04-25T04:35:18;2.60;;;1.73;;
22449;SDS011;11392;57.390;-2.468;2023-04-25T04:37:45;6.95;;;1.90;;
22449;SDS011;11392;57.390;-2.468;2023-04-25T04:40:14;8.82;;;2.58;;
22449;SDS011;11392;57.390;-2.468;2023-04-25T04:42:42;5.68;;;1.80;;
22449;SDS011;11392;57.390;-2.468;2023-04-25T04:45:10;3.72;;;1.90;;
22449;SDS011;11392;57.390;-2.468;2023-04-25T04:47:37;3.80;;;1.75;;
22449;SDS011;11392;57.390;-2.468;2023-04-25T04:50:06;6.28;;;3.22;;
22449;SDS011;11392;57.390;-2.468;2023-04-25T04:52:36;4.80;;;1.83;;
22449;SDS011;11392;57.390;-2.468;2023-04-25T04:55:03;3.97;;;2.40;;
22449;SDS011;11392;57.390;-2.468;2023-04-25T04:57:32;3.67;;;2.08;;
22449;SDS011;11392;57.390;-2.468;2023-04-25T04:59:59;3.05;;;1.73;;
22449;SDS011;11392;57.390;-2.468;2023-04-25T05:02:26;5.03;;;1.98;;
22449;SDS011;11392;57.390;-2.468;2023-04-25T05:04:55;3.63;;;2.05;;
22449;SDS011;11392;57.390;-2.468;2023-04-25T05:07:23;4.93;;;1.98;;
22449;SDS011;11392;57.390;-2.468;2023-04-25T05:09:50;5.47;;;2.00;;
22449;SDS011;11392;57.390;-2.468;2023-04-25T05:12:17;4.85;;;2.00;;
22449;SDS011;11392;57.390;-2.468;2023-04-25T05:14:44;5.63;;;1.98;;
22449;SDS011;11392;57.390;-2.468;2023-04-25T05:17:11;5.13;;;2.22;;
22449;SDS011;11392;57.390;-2.468;2023-04-25T05:19:38;6.88;;;2.17;;
22449;SDS011;11392;57.390;-2.468;2023-04-25T05:22:05;5.72;;;2.03;;
22449;SDS011;11392;57.390;-2.468;2023-04-25T05:24:32;3.70;;;2.05;;
22449;SDS011;11392;57.390;-2.468;2023-04-25T05:26:59;4.13;;;1.80;;
22449;SDS011;11392;57.390;-2.468;2023-04-25T05:29:26;5.95;;;2.15;;
22449;SDS011;11392;57.390;-2.468;2023-04-25T05:31:53;4.07;;;1.50;;
22449;SDS011;11392;57.390;-2.468;2023-04-25T05:34:20;6.88;;;1.92;;
22449;SDS011;11392;57.390;-2.468;2023-04-25T05:36:47;2.50;;;1.40;;
22449;SDS011;11392;57.390;-2.468;2023-04-25T05:39:15;6.80;;;1.50;;
22449;SDS011;11392;57.390;-2.468;2023-04-25T05:41:43;6.35;;;1.40;;
22449;SDS011;11392;57.390;-2.468;2023-04-25T05:44:11;3.42;;;1.65;;
22449;SDS011;11392;57.390;-2.468;2023-04-25T05:46:37;4.68;;;1.77;;
22449;SDS011;11392;57.390;-2.468;2023-04-25T05:49:04;3.80;;;1.55;;
22449;SDS011;11392;57.390;-2.468;2023-04-25T05:51:31;2.72;;;1.50;;
22449;SDS011;11392;57.390;-2.468;2023-04-25T05:53:58;4.20;;;1.67;;
22449;SDS011;11392;57.390;-2.468;2023-04-25T05:56:26;3.67;;;1.35;;
22449;SDS011;11392;57.390;-2.468;2023-04-25T05:58:53;4.57;;;1.40;;
22449;SDS011;11392;57.390;-2.468;2023-04-25T06:01:20;2.35;;;1.20;;
22449;SDS011;11392;57.390;-2.468;2023-04-25T06:03:48;5.00;;;1.45;;
22449;SDS011;11392;57.390;-2.468;2023-04-25T06:06:16;5.78;;;1.73;;
22449;SDS011;11392;57.390;-2.468;2023-04-25T06:08:43;2.80;;;1.60;;
22449;SDS011;11392;57.390;-2.468;2023-04-25T06:11:10;5.50;;;1.42;;
22449;SDS011;11392;57.390;-2.468;2023-04-25T06:13:37;4.35;;;1.83;;
22449;SDS011;11392;57.390;-2.468;2023-04-25T06:16:04;3.70;;;1.42;;
22449;SDS011;11392;57.390;-2.468;2023-04-25T06:18:32;4.70;;;1.75;;
22449;SDS011;11392;57.390;-2.468;2023-04-25T06:20:59;3.40;;;1.40;;
22449;SDS011;11392;57.390;-2.468;2023-04-25T06:23:26;4.57;;;1.60;;
22449;SDS011;11392;57.390;-2.468;2023-04-25T06:25:54;2.60;;;1.58;;
22449;SDS011;11392;57.390;-2.468;2023-04-25T06:28:21;2.15;;;1.23;;
22449;SDS011;11392;57.390;-2.468;2023-04-25T06:30:48;3.03;;;1.50;;
22449;SDS011;11392;57.390;-2.468;2023-04-25T06:33:15;3.90;;;1.30;;
22449;SDS011;11392;57.390;-2.468;2023-04-25T06:35:42;2.58;;;1.30;;
22449;SDS011;11392;57.390;-2.468;2023-04-25T06:38:09;1.90;;;1.08;;
22449;SDS011;11392;57.390;-2.468;2023-04-25T06:40:36;2.22;;;1.10;;
22449;SDS011;11392;57.390;-2.468;2023-04-25T06:43:03;3.88;;;1.20;;
22449;SDS011;11392;57.390;-2.468;2023-04-25T06:45:30;2.08;;;1.00;;
22449;SDS011;11392;57.390;-2.468;2023-04-25T06:47:57;1.25;;;1.15;;
22449;SDS011;11392;57.390;-2.468;2023-04-25T06:50:24;2.83;;;1.40;;
22449;SDS011;11392;57.390;-2.468;2023-04-25T06:52:51;4.95;;;2.22;;
22449;SDS011;11392;57.390;-2.468;2023-04-25T06:55:18;4.07;;;1.45;;
22449;SDS011;11392;57.390;-2.468;2023-04-25T06:57:46;2.28;;;1.00;;
22449;SDS011;11392;57.390;-2.468;2023-04-25T07:00:13;2.25;;;1.25;;
22449;SDS011;11392;57.390;-2.468;2023-04-25T07:02:40;2.75;;;1.20;;
22449;SDS011;11392;57.390;-2.468;2023-04-25T07:05:09;2.42;;;1.25;;
22449;SDS011;11392;57.390;-2.468;2023-04-25T07:07:36;3.78;;;1.33;;
22449;SDS011;11392;57.390;-2.468;2023-04-25T07:10:03;2.95;;;1.15;;
22449;SDS011;11392;57.390;-2.468;2023-04-25T07:12:31;2.20;;;1.30;;
22449;SDS011;11392;57.390;-2.468;2023-04-25T07:14:58;3.00;;;1.38;;
22449;SDS011;11392;57.390;-2.468;2023-04-25T07:17:25;2.03;;;1.25;;
22449;SDS011;11392;57.390;-2.468;2023-04-25T07:19:53;4.22;;;1.25;;
22449;SDS011;11392;57.390;-2.468;2023-04-25T07:22:20;1.45;;;1.35;;
22449;SDS011;11392;57.390;-2.468;2023-04-25T07:24:47;2.20;;;1.30;;
22449;SDS011;11392;57.390;-2.468;2023-04-25T07:27:15;4.45;;;1.58;;
22449;SDS011;11392;57.390;-2.468;2023-04-25T07:29:42;4.35;;;2.22;;
22449;SDS011;11392;57.390;-2.468;2023-04-25T07:32:09;7.25;;;2.10;;
22449;SDS011;11392;57.390;-2.468;2023-04-25T07:34:38;4.32;;;1.60;;
22449;SDS011;11392;57.390;-2.468;2023-04-25T07:37:05;2.47;;;1.40;;
22449;SDS011;11392;57.390;-2.468;2023-04-25T07:39:32;5.47;;;2.28;;
22449;SDS011;11392;57.390;-2.468;2023-04-25T07:41:59;2.47;;;1.77;;
22449;SDS011;11392;57.390;-2.468;2023-04-25T07:44:28;3.55;;;1.65;;
22449;SDS011;11392;57.390;-2.468;2023-04-25T07:46:56;2.72;;;1.50;;
22449;SDS011;11392;57.390;-2.468;2023-04-25T07:49:24;2.53;;;1.45;;
22449;SDS011;11392;57.390;-2.468;2023-04-25T07:51:51;4.45;;;2.03;;
22449;SDS011;11392;57.390;-2.468;2023-04-25T07:54:18;4.57;;;1.58;;
22449;SDS011;11392;57.390;-2.468;2023-04-25T07:56:45;5.60;;;2.83;;
22449;SDS011;11392;57.390;-2.468;2023-04-25T07:59:18;3.33;;;1.50;;
22449;SDS011;11392;57.390;-2.468;2023-04-25T08:01:46;3.65;;;1.95;;
22449;SDS011;11392;57.390;-2.468;2023-04-25T08:04:13;3.95;;;1.70;;
22449;SDS011;11392;57.390;-2.468;2023-04-25T08:06:40;2.78;;;2.35;;
22449;SDS011;11392;57.390;-2.468;2023-04-25T08:09:08;5.53;;;1.60;;
22449;SDS011;11392;57.390;-2.468;2023-04-25T08:11:35;1.92;;;1.20;;
22449;SDS011;11392;57.390;-2.468;2023-04-25T08:14:03;2.75;;;1.50;;
22449;SDS011;11392;57.390;-2.468;2023-04-25T08:16:30;1.85;;;1.00;;
22449;SDS011;11392;57.390;-2.468;2023-04-25T08:18:57;4.03;;;1.15;;
22449;SDS011;11392;57.390;-2.468;2023-04-25T08:21:25;1.75;;;1.10;;
22449;SDS011;11392;57.390;-2.468;2023-04-25T08:23:53;4.35;;;1.25;;
22449;SDS011;11392;57.390;-2.468;2023-04-25T08:26:20;3.30;;;1.23;;
22449;SDS011;11392;57.390;-2.468;2023-04-25T08:28:47;1.60;;;1.30;;
22449;SDS011;11392;57.390;-2.468;2023-04-25T08:31:15;1.67;;;1.05;;
22449;SDS011;11392;57.390;-2.468;2023-04-25T08:33:42;1.40;;;0.93;;
22449;SDS011;11392;57.390;-2.468;2023-04-25T08:36:10;2.65;;;1.25;;
22449;SDS011;11392;57.390;-2.468;2023-04-25T08:38:37;1.55;;;1.15;;
22449;SDS011;11392;57.390;-2.468;2023-04-25T08:41:04;1.40;;;0.95;;
22449;SDS011;11392;57.390;-2.468;2023-04-25T08:43:32;1.60;;;0.98;;
22449;SDS011;11392;57.390;-2.468;2023-04-25T08:46:01;1.00;;;0.90;;
22449;SDS011;11392;57.390;-2.468;2023-04-25T08:48:31;1.27;;;0.90;;
22449;SDS011;11392;57.390;-2.468;2023-04-25T08:51:01;1.15;;;1.05;;
22449;SDS011;11392;57.390;-2.468;2023-04-25T08:53:31;1.10;;;0.65;;
22449;SDS011;11392;57.390;-2.468;2023-04-25T08:56:00;3.33;;;1.17;;
22449;SDS011;11392;57.390;-2.468;2023-04-25T08:58:32;2.97;;;1.25;;
22449;SDS011;11392;57.390;-2.468;2023-04-25T09:00:59;2.88;;;1.30;;
22449;SDS011;11392;57.390;-2.468;2023-04-25T09:03:26;1.73;;;1.08;;
22449;SDS011;11392;57.390;-2.468;2023-04-25T09:05:55;2.40;;;1.52;;
22449;SDS011;11392;57.390;-2.468;2023-04-25T09:08:22;4.07;;;1.48;;
22449;SDS011;11392;57.390;-2.468;2023-04-25T09:10:49;3.42;;;1.30;;
22449;SDS011;11392;57.390;-2.468;2023-04-25T09:13:24;2.22;;;0.98;;
22449;SDS011;11392;57.390;-2.468;2023-04-25T09:15:56;2.80;;;1.45;;
22449;SDS011;11392;57.390;-2.468;2023-04-25T09:18:28;3.30;;;1.67;;
22449;SDS011;11392;57.390;-2.468;2023-04-25T09:20:58;3.83;;;1.52;;
22449;SDS011;11392;57.390;-2.468;2023-04-25T09:23:58;4.20;;;1.67;;
22449;SDS011;11392;57.390;-2.468;2023-04-25T09:26:25;4.47;;;1.52;;
22449;SDS011;11392;57.390;-2.468;2023-04-25T09:29:05;3.10;;;1.27;;
22449;SDS011;11392;57.390;-2.468;2023-04-25T09:31:33;3.15;;;1.85;;
22449;SDS011;11392;57.390;-2.468;2023-04-25T09:34:00;3.10;;;1.20;;
22449;SDS011;11392;57.390;-2.468;2023-04-25T09:36:29;2.90;;;1.30;;
22449;SDS011;11392;57.390;-2.468;2023-04-25T09:38:57;2.35;;;1.77;;
22449;SDS011;11392;57.390;-2.468;2023-04-25T09:41:27;2.42;;;1.50;;
22449;SDS011;11392;57.390;-2.468;2023-04-25T09:43:56;2.85;;;1.30;;
22449;SDS011;11392;57.390;-2.468;2023-04-25T09:46:25;2.70;;;1.38;;
22449;SDS011;11392;57.390;-2.468;2023-04-25T09:48:58;3.33;;;1.70;;
22449;SDS011;11392;57.390;-2.468;2023-04-25T09:51:33;1.83;;;1.55;;
22449;SDS011;11392;57.390;-2.468;2023-04-25T09:54:00;1.83;;;1.33;;
22449;SDS011;11392;57.390;-2.468;2023-04-25T09:56:27;2.22;;;1.25;;
22449;SDS011;11392;57.390;-2.468;2023-04-25T09:58:58;3.78;;;2.13;;
22449;SDS011;11392;57.390;-2.468;2023-04-25T10:01:25;2.67;;;1.30;;
22449;SDS011;11392;57.390;-2.468;2023-04-25T10:03:53;3.88;;;1.73;;
22449;SDS011;11392;57.390;-2.468;2023-04-25T10:06:25;2.22;;;1.45;;
22449;SDS011;11392;57.390;-2.468;2023-04-25T10:08:54;3.22;;;1.20;;
22449;SDS011;11392;57.390;-2.468;2023-04-25T10:11:22;2.88;;;1.48;;
22449;SDS011;11392;57.390;-2.468;2023-04-25T10:13:51;4.18;;;1.50;;
22449;SDS011;11392;57.390;-2.468;2023-04-25T10:16:19;4.93;;;1.60;;
22449;SDS011;11392;57.390;-2.468;2023-04-25T10:18:47;2.78;;;2.17;;
22449;SDS011;11392;57.390;-2.468;2023-04-25T10:21:15;3.63;;;1.70;;
22449;SDS011;11392;57.390;-2.468;2023-04-25T10:23:43;3.33;;;1.50;;
22449;SDS011;11392;57.390;-2.468;2023-04-25T10:26:11;1.30;;;1.20;;
22449;SDS011;11392;57.390;-2.468;2023-04-25T10:28:55;2.78;;;1.30;;
22449;SDS011;11392;57.390;-2.468;2023-04-25T10:31:24;5.28;;;1.73;;
22449;SDS011;11392;57.390;-2.468;2023-04-25T10:33:52;2.67;;;1.13;;
22449;SDS011;11392;57.390;-2.468;2023-04-25T10:36:20;1.75;;;1.27;;
22449;SDS011;11392;57.390;-2.468;2023-04-25T10:38:49;3.47;;;1.45;;
22449;SDS011;11392;57.390;-2.468;2023-04-25T10:41:17;1.25;;;1.15;;
22449;SDS011;11392;57.390;-2.468;2023-04-25T10:43:47;2.22;;;1.30;;
22449;SDS011;11392;57.390;-2.468;2023-04-25T10:48:46;1.77;;;1.23;;
22449;SDS011;11392;57.390;-2.468;2023-04-25T10:54:18;4.78;;;3.05;;
22449;SDS011;11392;57.390;-2.468;2023-04-25T10:56:48;2.50;;;1.50;;
22449;SDS011;11392;57.390;-2.468;2023-04-25T10:59:19;2.03;;;1.38;;
22449;SDS011;11392;57.390;-2.468;2023-04-25T11:01:48;2.17;;;1.20;;
22449;SDS011;11392;57.390;-2.468;2023-04-25T11:04:28;2.35;;;1.30;;
22449;SDS011;11392;57.390;-2.468;2023-04-25T11:09:49;1.45;;;1.20;;
22449;SDS011;11392;57.390;-2.468;2023-04-25T11:12:16;1.85;;;1.30;;
22449;SDS011;11392;57.390;-2.468;2023-04-25T11:14:43;1.48;;;1.30;;
22449;SDS011;11392;57.390;-2.468;2023-04-25T11:17:10;1.95;;;1.15;;
22449;SDS011;11392;57.390;-2.468;2023-04-25T11:19:38;3.17;;;1.10;;
22449;SDS011;11392;57.390;-2.468;2023-04-25T11:22:05;1.85;;;1.27;;
22449;SDS011;11392;57.390;-2.468;2023-04-25T11:24:33;2.97;;;1.50;;
22449;SDS011;11392;57.390;-2.468;2023-04-25T11:27:01;3.08;;;1.30;;
22449;SDS011;11392;57.390;-2.468;2023-04-25T11:29:30;2.05;;;1.17;;
22449;SDS011;11392;57.390;-2.468;2023-04-25T11:31:58;2.35;;;1.40;;
22449;SDS011;11392;57.390;-2.468;2023-04-25T11:34:28;4.35;;;1.13;;
22449;SDS011;11392;57.390;-2.468;2023-04-25T11:37:00;2.00;;;1.65;;
22449;SDS011;11392;57.390;-2.468;2023-04-25T11:39:28;2.28;;;1.10;;
22449;SDS011;11392;57.390;-2.468;2023-04-25T11:41:56;1.98;;;1.20;;
22449;SDS011;11392;57.390;-2.468;2023-04-25T11:44:23;2.63;;;1.17;;
22449;SDS011;11392;57.390;-2.468;2023-04-25T11:46:50;1.83;;;1.23;;
22449;SDS011;11392;57.390;-2.468;2023-04-25T11:49:17;3.05;;;1.00;;
22449;SDS011;11392;57.390;-2.468;2023-04-25T11:51:45;0.90;;;0.77;;
22449;SDS011;11392;57.390;-2.468;2023-04-25T11:54:13;0.70;;;0.70;;
22449;SDS011;11392;57.390;-2.468;2023-04-25T11:56:42;1.10;;;1.00;;
22449;SDS011;11392;57.390;-2.468;2023-04-25T11:59:09;1.45;;;1.27;;
22449;SDS011;11392;57.390;-2.468;2023-04-25T12:01:39;2.28;;;1.05;;
22449;SDS011;11392;57.390;-2.468;2023-04-25T12:04:14;1.58;;;1.27;;
22449;SDS011;11392;57.390;-2.468;2023-04-25T12:06:50;2.53;;;1.08;;
22449;SDS011;11392;57.390;-2.468;2023-04-25T12:09:19;2.78;;;1.60;;
22449;SDS011;11392;57.390;-2.468;2023-04-25T12:11:57;4.30;;;1.40;;
22449;SDS011;11392;57.390;-2.468;2023-04-25T12:14:26;3.40;;;1.58;;
22449;SDS011;11392;57.390;-2.468;2023-04-25T12:16:55;3.35;;;1.60;;
22449;SDS011;11392;57.390;-2.468;2023-04-25T12:19:24;2.45;;;1.33;;
22449;SDS011;11392;57.390;-2.468;2023-04-25T12:21:52;3.13;;;1.17;;
22449;SDS011;11392;57.390;-2.468;2023-04-25T12:24:25;2.20;;;1.05;;
22449;SDS011;11392;57.390;-2.468;2023-04-25T12:27:02;2.05;;;1.10;;
22449;SDS011;11392;57.390;-2.468;2023-04-25T12:29:31;2.35;;;1.25;;
22449;SDS011;11392;57.390;-2.468;2023-04-25T12:32:13;3.05;;;1.60;;
22449;SDS011;11392;57.390;-2.468;2023-04-25T12:34:40;1.65;;;1.55;;
22449;SDS011;11392;57.390;-2.468;2023-04-25T12:37:07;3.60;;;1.30;;
22449;SDS011;11392;57.390;-2.468;2023-04-25T12:39:35;2.22;;;1.35;;
22449;SDS011;11392;57.390;-2.468;2023-04-25T12:42:01;2.08;;;1.20;;
22449;SDS011;11392;57.390;-2.468;2023-04-25T12:44:33;3.05;;;1.20;;
22449;SDS011;11392;57.390;-2.468;2023-04-25T12:47:00;2.20;;;1.10;;
22449;SDS011;11392;57.390;-2.468;2023-04-25T12:49:27;4.35;;;1.27;;
22449;SDS011;11392;57.390;-2.468;2023-04-25T12:51:55;2.70;;;1.27;;
22449;SDS011;11392;57.390;-2.468;2023-04-25T12:54:22;3.30;;;1.52;;
22449;SDS011;11392;57.390;-2.468;2023-04-25T12:56:49;3.60;;;1.10;;
22449;SDS011;11392;57.390;-2.468;2023-04-25T12:59:17;2.85;;;1.45;;
22449;SDS011;11392;57.390;-2.468;2023-04-25T13:01:44;2.15;;;1.40;;
22449;SDS011;11392;57.390;-2.468;2023-04-25T13:04:11;2.20;;;1.00;;
22449;SDS011;11392;57.390;-2.468;2023-04-25T13:06:39;3.60;;;1.17;;
22449;SDS011;11392;57.390;-2.468;2023-04-25T13:09:06;2.05;;;1.10;;
22449;SDS011;11392;57.390;-2.468;2023-04-25T13:11:33;0.70;;;0.70;;
22449;SDS011;11392;57.390;-2.468;2023-04-25T13:14:00;1.15;;;0.80;;
22449;SDS011;11392;57.390;-2.468;2023-04-25T13:16:27;1.58;;;0.80;;
22449;SDS011;11392;57.390;-2.468;2023-04-25T13:18:54;1.90;;;0.82;;
22449;SDS011;11392;57.390;-2.468;2023-04-25T13:21:22;2.17;;;1.00;;
22449;SDS011;11392;57.390;-2.468;2023-04-25T13:23:49;3.85;;;1.08;;
22449;SDS011;11392;57.390;-2.468;2023-04-25T13:26:17;1.60;;;1.02;;
22449;SDS011;11392;57.390;-2.468;2023-04-25T13:28:44;1.77;;;0.98;;
22449;SDS011;11392;57.390;-2.468;2023-04-25T13:31:11;1.73;;;0.80;;
22449;SDS011;11392;57.390;-2.468;2023-04-25T13:33:38;3.05;;;1.30;;
22449;SDS011;11392;57.390;-2.468;2023-04-25T13:36:06;4.80;;;1.20;;
22449;SDS011;11392;57.390;-2.468;2023-04-25T13:38:33;2.78;;;1.15;;
22449;SDS011;11392;57.390;-2.468;2023-04-25T13:41:00;2.28;;;1.10;;
22449;SDS011;11392;57.390;-2.468;2023-04-25T13:43:27;1.65;;;0.90;;
22449;SDS011;11392;57.390;-2.468;2023-04-25T13:45:54;2.58;;;1.17;;
22449;SDS011;11392;57.390;-2.468;2023-04-25T13:48:21;3.80;;;1.50;;
22449;SDS011;11392;57.390;-2.468;2023-04-25T13:50:49;0.95;;;0.80;;
22449;SDS011;11392;57.390;-2.468;2023-04-25T13:53:16;2.08;;;1.13;;
22449;SDS011;11392;57.390;-2.468;2023-04-25T13:55:43;2.53;;;1.15;;
22449;SDS011;11392;57.390;-2.468;2023-04-25T13:58:11;1.65;;;1.02;;
22449;SDS011;11392;57.390;-2.468;2023-04-25T14:00:38;2.78;;;1.23;;
22449;SDS011;11392;57.390;-2.468;2023-04-25T14:03:06;2.47;;;1.20;;
22449;SDS011;11392;57.390;-2.468;2023-04-25T14:05:36;4.80;;;1.23;;
22449;SDS011;11392;57.390;-2.468;2023-04-25T14:08:08;1.63;;;1.00;;
22449;SDS011;11392;57.390;-2.468;2023-04-25T14:10:36;2.92;;;1.35;;
22449;SDS011;11392;57.390;-2.468;2023-04-25T14:13:04;2.85;;;1.10;;
22449;SDS011;11392;57.390;-2.468;2023-04-25T14:15:33;2.53;;;1.00;;
22449;SDS011;11392;57.390;-2.468;2023-04-25T14:18:01;2.75;;;1.25;;
22449;SDS011;11392;57.390;-2.468;2023-04-25T14:20:29;1.23;;;0.90;;
22449;SDS011;11392;57.390;-2.468;2023-04-25T14:22:56;4.05;;;1.00;;
22449;SDS011;11392;57.390;-2.468;2023-04-25T14:25:24;2.50;;;1.10;;
22449;SDS011;11392;57.390;-2.468;2023-04-25T14:27:51;2.15;;;0.95;;
22449;SDS011;11392;57.390;-2.468;2023-04-25T14:30:19;3.83;;;1.50;;
22449;SDS011;11392;57.390;-2.468;2023-04-25T14:32:50;2.65;;;1.38;;
22449;SDS011;11392;57.390;-2.468;2023-04-25T14:35:17;3.15;;;1.25;;
22449;SDS011;11392;57.390;-2.468;2023-04-25T14:37:44;2.70;;;1.10;;
22449;SDS011;11392;57.390;-2.468;2023-04-25T14:40:12;1.50;;;1.10;;
22449;SDS011;11392;57.390;-2.468;2023-04-25T14:42:41;3.50;;;1.42;;
22449;SDS011;11392;57.390;-2.468;2023-04-25T14:45:09;2.92;;;0.95;;
22449;SDS011;11392;57.390;-2.468;2023-04-25T14:47:36;2.35;;;1.15;;